createdAt,value
2018-07-27T00:04:18.885Z,23.60
2018-07-27T00:06:47.958Z,23.60
2018-07-27T00:09:17.015Z,23.50
2018-07-27T00:11:46.226Z,23.50
2018-07-27T00:14:15.292Z,23.50
2018-07-27T00:16:44.488Z,23.50
2018-07-27T00:19:13.549Z,23.40
2018-07-27T00:21:42.585Z,23.40
2018-07-27T00:24:11.630Z,23.30
2018-07-27T00:26:40.710Z,23.30
2018-07-27T00:29:09.822Z,23.20
2018-07-27T00:31:39.048Z,23.10
2018-07-27T00:34:08.278Z,23.10
2018-07-27T00:36:37.561Z,23.10
2018-07-27T00:39:09.781Z,23.10
2018-07-27T00:41:39.028Z,23.00
2018-07-27T00:44:08.253Z,22.90
2018-07-27T00:46:37.343Z,22.90
2018-07-27T00:49:06.638Z,22.80
2018-07-27T00:51:35.727Z,22.80
2018-07-27T00:54:04.795Z,22.70
2018-07-27T00:56:33.828Z,22.70
2018-07-27T00:59:02.953Z,22.60
2018-07-27T01:01:32.080Z,22.60
2018-07-27T01:04:01.153Z,22.50
2018-07-27T01:06:30.205Z,22.50
2018-07-27T01:08:59.255Z,22.50
2018-07-27T01:11:28.342Z,22.50
2018-07-27T01:16:26.232Z,22.40
2018-07-27T01:18:55.327Z,22.30
2018-07-27T01:21:24.396Z,22.30
2018-07-27T01:23:53.480Z,22.30
2018-07-27T01:26:22.503Z,22.30
2018-07-27T01:28:51.575Z,22.30
2018-07-27T01:33:52.168Z,22.20
2018-07-27T01:36:21.338Z,22.20
2018-07-27T01:38:50.501Z,22.20
2018-07-27T01:41:19.676Z,22.20
2018-07-27T01:43:48.818Z,22.10
2018-07-27T01:46:18.638Z,22.10
2018-07-27T01:48:47.798Z,22.10
2018-07-27T01:51:16.892Z,22.10
2018-07-27T01:53:45.987Z,22.10
2018-07-27T01:56:15.056Z,22.10
2018-07-27T01:58:44.097Z,22.00
2018-07-27T02:01:13.161Z,22.00
2018-07-27T02:03:42.186Z,21.90
2018-07-27T02:06:11.323Z,21.90
2018-07-27T02:08:40.417Z,21.90
2018-07-27T02:11:09.601Z,21.90
2018-07-27T02:13:38.674Z,21.90
2018-07-27T02:16:07.764Z,21.90
2018-07-27T02:18:36.793Z,21.90
2018-07-27T02:21:06.379Z,21.90
2018-07-27T02:23:35.477Z,21.90
2018-07-27T02:26:04.490Z,21.90
2018-07-27T02:28:33.562Z,21.90
2018-07-27T02:31:02.619Z,21.90
2018-07-27T02:33:31.745Z,21.80
2018-07-27T02:36:00.844Z,21.80
2018-07-27T02:38:30.008Z,21.70
2018-07-27T02:40:59.204Z,21.70
2018-07-27T02:43:28.552Z,21.70
2018-07-27T02:45:57.671Z,21.70
2018-07-27T02:48:26.754Z,21.70
2018-07-27T02:50:55.895Z,21.70
2018-07-27T02:53:24.946Z,21.60
2018-07-27T02:55:54.077Z,21.60
2018-07-27T02:58:23.108Z,21.60
2018-07-27T03:00:52.145Z,21.60
2018-07-27T03:03:21.455Z,21.50
2018-07-27T03:05:50.621Z,21.50
2018-07-27T03:08:19.644Z,21.50
2018-07-27T03:10:48.705Z,21.40
2018-07-27T03:13:17.800Z,21.40
2018-07-27T03:15:46.847Z,21.30
2018-07-27T03:18:15.937Z,21.30
2018-07-27T03:20:44.974Z,21.30
2018-07-27T03:23:14.186Z,21.20
2018-07-27T03:25:43.267Z,21.20
2018-07-27T03:28:12.365Z,21.20
2018-07-27T03:30:41.513Z,21.20
2018-07-27T03:33:11.018Z,21.20
2018-07-27T03:35:40.111Z,21.20
2018-07-27T03:38:09.371Z,21.20
2018-07-27T03:40:38.513Z,21.20
2018-07-27T03:43:07.751Z,21.20
2018-07-27T03:45:37.212Z,21.20
2018-07-27T03:48:09.440Z,21.10
2018-07-27T03:50:40.436Z,21.10
2018-07-27T03:53:10.193Z,21.10
2018-07-27T03:55:39.385Z,21.00
2018-07-27T03:58:08.797Z,21.00
2018-07-27T04:00:37.913Z,21.00
2018-07-27T04:03:06.992Z,21.00
2018-07-27T04:05:36.061Z,21.00
2018-07-27T04:08:05.151Z,21.00
2018-07-27T04:10:34.193Z,21.10
2018-07-27T04:13:03.247Z,21.10
2018-07-27T04:15:32.310Z,21.10
2018-07-27T04:18:02.165Z,21.10
2018-07-27T04:20:31.732Z,21.20
2018-07-27T04:23:00.798Z,21.20
2018-07-27T04:25:29.832Z,21.20
2018-07-27T04:27:58.975Z,21.20
2018-07-27T04:30:28.007Z,21.20
2018-07-27T04:32:57.166Z,21.20
2018-07-27T04:35:26.248Z,21.30
2018-07-27T04:37:55.332Z,21.30
2018-07-27T04:40:24.425Z,21.30
2018-07-27T04:42:53.553Z,21.30
2018-07-27T04:45:22.720Z,21.40
2018-07-27T04:47:51.866Z,21.40
2018-07-27T04:50:21.221Z,21.40
2018-07-27T04:52:50.396Z,21.50
2018-07-27T04:55:20.227Z,21.50
2018-07-27T04:57:49.729Z,21.50
2018-07-27T05:00:19.330Z,21.50
2018-07-27T05:02:48.661Z,21.50
2018-07-27T05:05:18.005Z,21.50
2018-07-27T05:07:47.096Z,21.50
2018-07-27T05:10:21.618Z,21.50
2018-07-27T05:12:51.456Z,21.60
2018-07-27T05:15:20.644Z,21.60
2018-07-27T05:17:49.705Z,21.60
2018-07-27T05:20:18.813Z,21.60
2018-07-27T05:22:47.854Z,21.70
2018-07-27T05:25:16.929Z,21.70
2018-07-27T05:27:46.052Z,21.80
2018-07-27T05:30:15.124Z,21.80
2018-07-27T05:32:44.210Z,21.90
2018-07-27T05:35:13.587Z,22.00
2018-07-27T05:37:42.657Z,22.00
2018-07-27T05:40:11.793Z,22.10
2018-07-27T05:42:40.912Z,22.30
2018-07-27T05:45:10.069Z,22.50
2018-07-27T05:47:39.160Z,22.60
2018-07-27T05:50:08.359Z,22.90
2018-07-27T05:52:37.557Z,23.10
2018-07-27T05:55:06.626Z,23.30
2018-07-27T06:00:06.585Z,23.50
2018-07-27T06:02:35.695Z,23.60
2018-07-27T06:05:05.698Z,23.80
2018-07-27T06:07:35.201Z,23.90
2018-07-27T06:10:05.190Z,23.90
2018-07-27T06:12:34.542Z,24.00
2018-07-27T06:15:03.825Z,24.00
2018-07-27T06:17:33.059Z,24.00
2018-07-27T06:20:02.272Z,24.30
2018-07-27T06:22:31.429Z,24.40
2018-07-27T06:25:00.558Z,24.50
2018-07-27T06:29:59.527Z,24.40
2018-07-27T06:32:28.582Z,24.40
2018-07-27T06:34:57.677Z,24.40
2018-07-27T06:37:26.942Z,24.40
2018-07-27T06:39:56.026Z,24.40
2018-07-27T06:42:25.090Z,24.30
2018-07-27T06:44:54.255Z,24.30
2018-07-27T06:47:23.350Z,24.30
2018-07-27T06:49:52.658Z,24.40
2018-07-27T06:52:21.838Z,24.30
2018-07-27T06:54:51.129Z,24.30
2018-07-27T06:57:20.394Z,24.30
2018-07-27T06:59:49.533Z,24.30
2018-07-27T07:02:18.899Z,24.40
2018-07-27T07:04:48.396Z,24.40
2018-07-27T07:07:17.676Z,24.50
2018-07-27T07:09:47.121Z,24.60
2018-07-27T07:12:16.735Z,24.60
2018-07-27T07:14:46.347Z,24.70
2018-07-27T07:17:15.867Z,24.80
2018-07-27T07:22:14.161Z,25.00
2018-07-27T07:24:43.516Z,25.10
2018-07-27T07:27:12.865Z,25.10
2018-07-27T07:29:42.120Z,25.20
2018-07-27T07:32:11.203Z,25.20
2018-07-27T07:34:40.335Z,25.30
2018-07-27T07:37:09.512Z,25.30
2018-07-27T07:39:38.627Z,25.30
2018-07-27T07:42:07.729Z,25.40
2018-07-27T07:44:36.889Z,25.40
2018-07-27T07:47:06.160Z,25.50
2018-07-27T07:49:35.288Z,25.50
2018-07-27T07:52:04.426Z,25.60
2018-07-27T07:54:33.629Z,25.70
2018-07-27T07:57:02.719Z,25.80
2018-07-27T07:59:31.798Z,25.90
2018-07-27T08:02:01.080Z,26.00
2018-07-27T08:04:30.155Z,26.10
2018-07-27T08:06:59.267Z,26.20
2018-07-27T08:09:28.449Z,26.20
2018-07-27T08:11:57.622Z,26.20
2018-07-27T08:14:26.803Z,26.40
2018-07-27T08:16:56.003Z,26.40
2018-07-27T08:19:25.280Z,26.40
2018-07-27T08:21:54.570Z,26.50
2018-07-27T08:24:24.117Z,26.50
2018-07-27T08:26:59.349Z,26.60
2018-07-27T08:29:30.961Z,26.70
2018-07-27T08:32:00.977Z,26.80
2018-07-27T08:34:30.364Z,26.90
2018-07-27T08:37:00.057Z,26.90
2018-07-27T08:39:30.975Z,27.00
2018-07-27T08:42:00.420Z,27.10
2018-07-27T08:44:31.042Z,27.20
2018-07-27T08:47:00.535Z,27.30
2018-07-27T08:49:29.778Z,27.30
2018-07-27T08:51:59.149Z,27.30
2018-07-27T08:54:28.553Z,27.40
2018-07-27T08:56:57.826Z,27.30
2018-07-27T08:59:27.036Z,27.30
2018-07-27T09:01:56.146Z,27.30
2018-07-27T09:04:25.218Z,27.50
2018-07-27T09:06:54.379Z,27.60
2018-07-27T09:09:23.526Z,27.70
2018-07-27T09:11:52.746Z,27.80
2018-07-27T09:14:21.819Z,27.80
2018-07-27T09:16:51.004Z,27.90
2018-07-27T09:19:20.146Z,28.00
2018-07-27T09:21:49.236Z,28.00
2018-07-27T09:24:18.376Z,28.00
2018-07-27T09:26:47.440Z,28.00
2018-07-27T09:29:16.669Z,28.20
2018-07-27T09:31:45.791Z,28.30
2018-07-27T09:34:14.995Z,28.40
2018-07-27T09:36:44.081Z,28.50
2018-07-27T09:39:13.871Z,28.60
2018-07-27T09:41:43.349Z,28.70
2018-07-27T09:44:13.402Z,28.80
2018-07-27T09:46:42.831Z,28.70
2018-07-27T09:51:43.187Z,28.60
2018-07-27T09:54:13.221Z,28.70
2018-07-27T09:56:43.887Z,28.70
2018-07-27T09:59:14.253Z,28.80
2018-07-27T10:01:44.187Z,28.80
2018-07-27T10:04:14.227Z,28.70
2018-07-27T10:06:44.692Z,28.80
2018-07-27T10:09:14.921Z,28.90
2018-07-27T10:11:45.298Z,29.00
2018-07-27T10:14:15.537Z,29.00
2018-07-27T10:16:46.141Z,29.10
2018-07-27T10:19:15.616Z,29.10
2018-07-27T10:21:46.415Z,29.20
2018-07-27T10:24:15.814Z,29.30
2018-07-27T10:26:45.455Z,29.40
2018-07-27T10:29:15.314Z,29.50
2018-07-27T10:31:45.189Z,29.60
2018-07-27T10:34:14.920Z,29.60
2018-07-27T10:36:45.041Z,29.70
2018-07-27T10:39:15.274Z,29.80
2018-07-27T10:41:45.328Z,30.00
2018-07-27T10:44:15.614Z,30.00
2018-07-27T10:46:46.114Z,30.10
2018-07-27T10:49:17.594Z,30.10
2018-07-27T10:51:47.421Z,30.10
2018-07-27T10:54:17.117Z,30.20
2018-07-27T10:56:47.237Z,30.30
2018-07-27T10:59:17.056Z,30.30
2018-07-27T11:01:46.253Z,30.40
2018-07-27T11:04:15.820Z,30.50
2018-07-27T11:06:45.314Z,30.40
2018-07-27T11:09:14.538Z,30.30
2018-07-27T11:11:43.678Z,30.40
2018-07-27T11:16:41.674Z,30.40
2018-07-27T11:19:10.806Z,30.40
2018-07-27T11:21:39.878Z,30.50
2018-07-27T11:24:09.042Z,30.50
2018-07-27T11:26:38.138Z,30.60
2018-07-27T11:29:07.376Z,30.60
2018-07-27T11:31:36.522Z,30.50
2018-07-27T11:34:05.653Z,30.30
2018-07-27T11:36:34.844Z,30.40
2018-07-27T11:39:05.994Z,30.50
2018-07-27T11:41:35.161Z,30.60
2018-07-27T11:44:04.555Z,30.80
2018-07-27T11:46:33.843Z,30.90
2018-07-27T11:49:03.119Z,30.90
2018-07-27T11:51:32.698Z,31.00
2018-07-27T11:54:01.905Z,31.00
2018-07-27T11:56:31.197Z,31.00
2018-07-27T11:59:00.546Z,31.00
2018-07-27T12:01:29.879Z,31.10
2018-07-27T12:03:59.359Z,31.10
2018-07-27T12:06:28.972Z,31.10
2018-07-27T12:08:58.564Z,31.10
2018-07-27T12:11:27.722Z,31.00
2018-07-27T12:16:25.928Z,31.30
2018-07-27T12:18:55.120Z,31.30
2018-07-27T12:21:24.260Z,31.40
2018-07-27T12:23:54.239Z,31.30
2018-07-27T12:26:23.878Z,31.40
2018-07-27T12:28:52.946Z,31.50
2018-07-27T12:31:22.316Z,31.70
2018-07-27T12:33:51.478Z,31.70
2018-07-27T12:36:20.604Z,31.70
2018-07-27T12:38:49.815Z,31.80
2018-07-27T12:41:19.039Z,31.90
2018-07-27T12:43:48.232Z,31.90
2018-07-27T12:46:17.338Z,31.80
2018-07-27T12:48:46.401Z,31.70
2018-07-27T12:51:15.536Z,31.60
2018-07-27T12:53:44.683Z,31.50
2018-07-27T12:56:13.909Z,31.40
2018-07-27T12:58:43.637Z,31.40
2018-07-27T13:01:12.761Z,31.40
2018-07-27T13:03:42.156Z,31.60
2018-07-27T13:06:11.583Z,31.80
2018-07-27T13:08:40.934Z,31.90
2018-07-27T13:11:10.819Z,31.90
2018-07-27T13:13:40.316Z,31.70
2018-07-27T13:16:09.756Z,31.70
2018-07-27T13:18:39.048Z,31.70
2018-07-27T13:21:08.385Z,31.90
2018-07-27T13:23:37.957Z,31.90
2018-07-27T13:26:28.700Z,32.00
2018-07-27T13:28:43.098Z,31.90
2018-07-27T13:31:13.169Z,32.10
2018-07-27T13:35:01.871Z,32.30
2018-07-27T13:37:32.336Z,32.40
2018-07-27T13:40:03.503Z,32.20
2018-07-27T13:42:33.838Z,32.20
2018-07-27T13:45:03.029Z,32.20
2018-07-27T13:47:32.126Z,32.20
2018-07-27T13:50:01.353Z,32.30
2018-07-27T13:52:30.495Z,32.40
2018-07-27T13:54:59.537Z,32.50
2018-07-27T13:57:28.674Z,32.50
2018-07-27T13:59:57.791Z,32.20
2018-07-27T14:02:27.061Z,31.90
2018-07-27T14:04:56.174Z,31.80
2018-07-27T14:07:25.796Z,31.90
2018-07-27T14:09:55.131Z,31.90
2018-07-27T14:12:25.032Z,32.00
2018-07-27T14:14:54.630Z,32.10
2018-07-27T14:17:24.244Z,32.20
2018-07-27T14:19:53.738Z,32.40
2018-07-27T14:22:23.321Z,32.10
2018-07-27T14:24:52.701Z,32.00
2018-07-27T14:27:22.001Z,32.00
2018-07-27T14:29:51.392Z,31.80
2018-07-27T14:32:20.755Z,31.80
2018-07-27T14:34:50.474Z,31.80
2018-07-27T14:37:19.773Z,31.60
2018-07-27T14:39:49.963Z,31.30
2018-07-27T14:42:19.775Z,31.40
2018-07-27T14:44:49.237Z,31.30
2018-07-27T14:47:18.673Z,31.10
2018-07-27T14:49:48.097Z,30.90
2018-07-27T14:52:17.351Z,31.00
2018-07-27T14:54:46.604Z,31.10
2018-07-27T14:57:15.782Z,31.10
2018-07-27T14:59:44.990Z,31.00
2018-07-27T15:02:14.582Z,31.00
2018-07-27T15:04:44.045Z,31.00
2018-07-27T15:07:13.167Z,31.00
2018-07-27T15:09:42.314Z,31.00
2018-07-27T15:12:11.818Z,30.90
2018-07-27T15:14:40.879Z,30.80
2018-07-27T15:17:10.144Z,30.90
2018-07-27T15:19:39.608Z,31.00
2018-07-27T15:22:08.847Z,31.00
2018-07-27T15:24:38.222Z,31.00
2018-07-27T15:27:07.594Z,31.00
2018-07-27T15:29:37.909Z,31.00
2018-07-27T15:32:07.317Z,30.90
2018-07-27T15:34:36.577Z,30.60
2018-07-27T15:37:05.928Z,30.50
2018-07-27T15:39:36.345Z,30.40
2018-07-27T15:42:06.095Z,30.50
2018-07-27T15:44:35.282Z,30.60
2018-07-27T15:47:04.639Z,30.70
2018-07-27T15:49:34.246Z,30.70
2018-07-27T15:52:04.517Z,30.50
2018-07-27T15:54:33.919Z,30.40
2018-07-27T15:57:03.136Z,30.40
2018-07-27T15:59:32.391Z,30.30
2018-07-27T16:02:01.547Z,30.30
2018-07-27T16:04:30.697Z,30.20
2018-07-27T16:06:59.840Z,30.30
2018-07-27T16:09:29.120Z,30.30
2018-07-27T16:11:58.259Z,30.40
2018-07-27T16:14:27.537Z,30.60
2018-07-27T16:17:00.561Z,30.70
2018-07-27T16:19:32.045Z,30.70
2018-07-27T16:22:01.820Z,30.70
2018-07-27T16:24:31.924Z,30.70
2018-07-27T16:27:01.060Z,30.80
2018-07-27T16:34:28.725Z,30.40
2018-07-27T16:36:57.911Z,30.30
2018-07-27T16:39:27.630Z,30.00
2018-07-27T16:41:56.741Z,29.90
2018-07-27T16:44:26.019Z,29.90
2018-07-27T16:46:55.281Z,29.80
2018-07-27T16:49:24.472Z,29.80
2018-07-27T16:51:53.679Z,29.80
2018-07-27T16:54:23.030Z,29.90
2018-07-27T16:56:52.218Z,29.80
2018-07-27T16:59:21.578Z,29.80
2018-07-27T17:01:50.914Z,29.80
2018-07-27T17:04:22.338Z,29.80
2018-07-27T17:06:52.047Z,29.80
2018-07-27T17:09:22.072Z,29.80
2018-07-27T17:11:51.338Z,29.70
2018-07-27T17:14:20.773Z,29.80
2018-07-27T17:16:50.235Z,29.70
2018-07-27T17:19:19.495Z,29.70
2018-07-27T17:21:49.621Z,29.70
2018-07-27T17:24:19.590Z,29.60
2018-07-27T17:26:49.128Z,29.50
2018-07-27T17:29:18.854Z,29.50
2018-07-27T17:31:48.346Z,29.50
2018-07-27T17:34:17.491Z,29.50
2018-07-27T17:36:46.552Z,29.50
2018-07-27T17:39:15.609Z,29.40
2018-07-27T17:41:44.768Z,29.40
2018-07-27T17:44:14.128Z,29.30
2018-07-27T17:46:43.318Z,29.30
2018-07-27T17:49:12.463Z,29.30
2018-07-27T17:51:41.688Z,29.40
2018-07-27T17:54:11.050Z,29.30
2018-07-27T17:56:41.214Z,29.20
2018-07-27T17:59:10.504Z,29.20
2018-07-27T18:01:39.961Z,29.30
2018-07-27T18:04:09.331Z,29.40
2018-07-27T18:06:38.417Z,29.40
2018-07-27T18:09:11.197Z,29.40
2018-07-27T18:11:40.960Z,29.30
2018-07-27T18:14:10.451Z,29.20
2018-07-27T18:16:39.928Z,29.10
2018-07-27T18:19:09.379Z,29.10
2018-07-27T18:21:38.961Z,29.10
2018-07-27T18:24:08.750Z,29.10
2018-07-27T18:26:38.142Z,29.00
2018-07-27T18:29:07.409Z,28.90
2018-07-27T18:31:36.877Z,28.90
2018-07-27T18:34:06.125Z,28.70
2018-07-27T18:36:35.782Z,28.60
2018-07-27T18:39:08.864Z,28.60
2018-07-27T18:41:38.083Z,28.50
2018-07-27T18:44:07.809Z,28.50
2018-07-27T18:46:37.990Z,28.40
2018-07-27T18:49:07.513Z,28.30
2018-07-27T18:51:36.720Z,28.30
2018-07-27T18:56:35.962Z,28.20
2018-07-27T18:59:05.222Z,28.20
2018-07-27T19:01:34.831Z,28.10
2018-07-27T19:04:05.929Z,28.10
2018-07-27T19:06:35.480Z,28.10
2018-07-27T19:11:37.152Z,27.90
2018-07-27T19:14:07.296Z,27.90
2018-07-27T19:16:36.581Z,27.90
2018-07-27T19:19:06.145Z,27.90
2018-07-27T19:21:35.843Z,27.80
2018-07-27T19:24:05.099Z,27.80
2018-07-27T19:26:34.386Z,27.70
2018-07-27T19:29:03.567Z,27.70
2018-07-27T19:31:32.861Z,27.70
2018-07-27T19:34:02.168Z,27.70
2018-07-27T19:36:31.385Z,27.60
2018-07-27T19:39:00.691Z,27.60
2018-07-27T19:41:29.977Z,27.50
2018-07-27T19:44:00.334Z,27.50
2018-07-27T19:46:29.720Z,27.50
2018-07-27T19:48:58.857Z,27.40
2018-07-27T19:51:27.975Z,27.40
2018-07-27T19:53:57.262Z,27.30
2018-07-27T19:56:26.504Z,27.20
2018-07-27T19:58:55.748Z,27.20
2018-07-27T20:01:25.850Z,27.10
2018-07-27T20:03:55.152Z,27.10
2018-07-27T20:06:24.409Z,27.00
2018-07-27T20:08:53.616Z,27.00
2018-07-27T20:13:52.170Z,26.80
2018-07-27T20:16:21.374Z,26.80
2018-07-27T20:18:51.067Z,26.70
2018-07-27T20:21:20.709Z,26.70
2018-07-27T20:23:50.108Z,26.60
2018-07-27T20:26:19.775Z,26.60
2018-07-27T20:28:49.301Z,26.50
2018-07-27T20:31:18.640Z,26.50
2018-07-27T20:33:47.922Z,26.40
2018-07-27T20:36:18.099Z,26.30
2018-07-27T20:38:47.406Z,26.30
2018-07-27T20:41:23.196Z,26.30
2018-07-27T20:43:53.323Z,26.20
2018-07-27T20:46:24.155Z,26.20
2018-07-27T20:48:53.512Z,26.10
2018-07-27T20:51:22.837Z,26.10
2018-07-27T20:53:53.212Z,26.10
2018-07-27T20:56:23.079Z,26.00
2018-07-27T20:58:53.123Z,26.00
2018-07-27T21:01:22.268Z,25.90
2018-07-27T21:03:51.467Z,25.90
2018-07-27T21:06:20.683Z,25.80
2018-07-27T21:08:49.736Z,25.70
2018-07-27T21:11:18.834Z,25.70
2018-07-27T21:13:48.097Z,25.70
2018-07-27T21:16:17.191Z,25.60
2018-07-27T21:18:46.266Z,25.60
2018-07-27T21:21:15.374Z,25.50
2018-07-27T21:23:44.495Z,25.50
2018-07-27T21:26:13.619Z,25.40
2018-07-27T21:28:42.921Z,25.40
2018-07-27T21:31:12.142Z,25.30
2018-07-27T21:33:41.184Z,25.30
2018-07-27T21:36:10.362Z,25.20
2018-07-27T21:38:39.731Z,25.20
2018-07-27T21:41:08.874Z,25.20
2018-07-27T21:43:37.985Z,25.10
2018-07-27T21:46:07.314Z,25.10
2018-07-27T21:48:36.720Z,25.00
2018-07-27T21:51:06.008Z,25.00
2018-07-27T21:53:35.353Z,24.90
2018-07-27T21:56:04.646Z,24.90
2018-07-27T21:58:34.120Z,24.90
2018-07-27T22:01:03.430Z,24.80
2018-07-27T22:03:32.694Z,24.80
2018-07-27T22:06:02.214Z,24.80
2018-07-27T22:08:31.349Z,24.70
2018-07-27T22:11:00.431Z,24.70
2018-07-27T22:15:58.417Z,24.60
2018-07-27T22:18:27.541Z,24.60
2018-07-27T22:20:56.673Z,24.60
2018-07-27T22:23:25.768Z,24.50
2018-07-27T22:25:54.902Z,24.50
2018-07-27T22:28:24.030Z,24.50
2018-07-27T22:30:53.182Z,24.40
2018-07-27T22:33:22.282Z,24.40
2018-07-27T22:35:51.345Z,24.30
2018-07-27T22:38:20.462Z,24.30
2018-07-27T22:40:49.573Z,24.20
2018-07-27T22:43:18.751Z,24.20
2018-07-27T22:45:47.935Z,24.20
2018-07-27T22:48:17.198Z,24.10
2018-07-27T22:50:46.700Z,24.10
2018-07-27T22:53:16.002Z,24.00
2018-07-27T22:55:45.217Z,24.00
2018-07-27T22:58:14.505Z,24.00
2018-07-27T23:00:43.902Z,23.90
2018-07-27T23:03:13.220Z,23.90
2018-07-27T23:05:44.197Z,23.90
2018-07-27T23:08:13.501Z,23.80
2018-07-27T23:10:42.755Z,23.80
2018-07-27T23:13:11.913Z,23.80
2018-07-27T23:15:41.001Z,23.70
2018-07-27T23:18:10.046Z,23.70
2018-07-27T23:20:39.192Z,23.70
2018-07-27T23:23:08.260Z,23.60
2018-07-27T23:25:37.305Z,23.60
2018-07-27T23:28:06.652Z,23.60
2018-07-27T23:30:35.801Z,23.60
2018-07-27T23:33:04.945Z,23.60
2018-07-27T23:35:34.010Z,23.60
2018-07-27T23:38:03.336Z,23.50
2018-07-27T23:40:32.467Z,23.50
2018-07-27T23:43:01.686Z,23.50
2018-07-27T23:45:30.807Z,23.40
2018-07-27T23:47:59.897Z,23.40
2018-07-27T23:50:28.958Z,23.30
2018-07-27T23:52:58.088Z,23.30
2018-07-27T23:55:27.266Z,23.30
2018-07-27T23:57:56.580Z,23.20
